Time;durP1;ratioP1;P1;durP2;ratioP2;P2;SDS_P1;SDS_P2;PMS_P1;PMS_P2;Temp;Humidity;BMP_temperature;BMP_pressure;BME280_temperature;BME280_humidity;BME280_pressure;Samples;Min_cycle;Max_cycle;Signal;HPM_P1;HPM_P2
2021/04/09 00:01:41;;;;;;;23.67;13.50;;;7.00;99.90;;;;;;5065832;28;20016;-69
2021/04/09 00:04:07;;;;;;;18.55;12.85;;;7.00;99.90;;;;;;5061301;28;20031;-69
2021/04/09 00:06:33;;;;;;;21.88;14.35;;;7.00;99.90;;;;;;5071141;28;20024;-69
2021/04/09 00:08:58;;;;;;;24.35;13.13;;;7.00;99.90;;;;;;5067227;28;20457;-69
2021/04/09 00:11:24;;;;;;;25.00;12.88;;;7.00;99.90;;;;;;5059638;28;20503;-69
2021/04/09 00:13:50;;;;;;;23.42;13.02;;;7.00;99.90;;;;;;5066128;28;20138;-69
2021/04/09 00:16:16;;;;;;;21.98;12.80;;;7.00;99.90;;;;;;5066319;28;20074;-69
2021/04/09 00:18:41;;;;;;;22.05;11.95;;;7.00;99.90;;;;;;5063367;28;20025;-69
2021/04/09 00:21:07;;;;;;;21.33;12.10;;;7.00;99.90;;;;;;5064006;28;20024;-69
2021/04/09 00:23:33;;;;;;;16.92;11.23;;;7.00;99.90;;;;;;5063796;28;20054;-69
2021/04/09 00:25:59;;;;;;;19.80;11.70;;;6.90;99.90;;;;;;5067969;28;20033;-69
2021/04/09 00:28:24;;;;;;;22.65;11.43;;;6.90;99.90;;;;;;5074858;28;20032;-69
2021/04/09 00:30:50;;;;;;;17.55;11.05;;;6.90;99.90;;;;;;5066562;28;20420;-70
2021/04/09 00:33:16;;;;;;;20.27;11.35;;;7.00;99.90;;;;;;5064422;28;20063;-69
2021/04/09 00:35:43;;;;;;;16.98;11.30;;;6.90;99.90;;;;;;5068542;28;20013;-69
2021/04/09 00:38:10;;;;;;;20.38;11.75;;;6.90;99.90;;;;;;5070036;28;20016;-69
2021/04/09 00:40:36;;;;;;;20.27;11.02;;;6.90;99.90;;;;;;5069400;28;20047;-69
2021/04/09 00:43:03;;;;;;;15.75;10.70;;;6.90;99.90;;;;;;5067533;28;20038;-69
2021/04/09 00:45:29;;;;;;;19.27;11.15;;;6.90;99.90;;;;;;5069403;28;20035;-69
2021/04/09 00:47:54;;;;;;;16.95;11.20;;;6.90;99.90;;;;;;5070233;28;20021;-69
2021/04/09 00:50:20;;;;;;;22.08;11.88;;;7.00;99.90;;;;;;5064424;28;20020;-69
2021/04/09 00:52:46;;;;;;;16.95;11.70;;;6.90;99.90;;;;;;5063376;28;20025;-69
2021/04/09 00:55:13;;;;;;;22.10;10.80;;;6.90;99.90;;;;;;5063758;28;20036;-69
2021/04/09 00:57:41;;;;;;;23.92;11.48;;;6.90;99.90;;;;;;5072872;28;20055;-69
2021/04/09 01:00:10;;;;;;;20.27;11.05;;;6.90;99.90;;;;;;5068832;28;20026;-69
2021/04/09 01:02:36;;;;;;;22.77;11.15;;;6.90;99.90;;;;;;5061417;28;20114;-69
2021/04/09 01:05:06;;;;;;;20.17;11.35;;;6.90;99.90;;;;;;5065861;28;20040;-69
2021/04/09 01:07:32;;;;;;;20.05;10.40;;;6.90;99.90;;;;;;5068683;28;20834;-70
2021/04/09 01:09:59;;;;;;;13.98;9.85;;;6.90;99.90;;;;;;5072905;28;20020;-69
2021/04/09 01:12:24;;;;;;;18.10;10.38;;;6.80;99.90;;;;;;5070722;28;20469;-69
2021/04/09 01:14:50;;;;;;;15.82;9.77;;;6.80;99.90;;;;;;5064352;28;20071;-69
2021/04/09 01:17:42;;;;;;;17.77;10.15;;;6.80;99.90;;;;;;5067026;28;20096;-69
2021/04/09 01:20:27;;;;;;;16.48;10.30;;;6.70;99.90;;;;;;5068872;28;20121;-70
2021/04/09 01:23:24;;;;;;;16.67;10.05;;;6.70;99.90;;;;;;5068601;28;20598;-69
2021/04/09 01:26:02;;;;;;;21.98;10.73;;;6.70;99.90;;;;;;5061250;28;20504;-69
2021/04/09 01:28:31;;;;;;;19.30;11.38;;;6.70;99.90;;;;;;5068264;28;20025;-69
2021/04/09 01:31:19;;;;;;;18.50;9.85;;;6.70;99.90;;;;;;5069157;28;20017;-69
2021/04/09 01:33:49;;;;;;;17.25;10.38;;;6.70;99.90;;;;;;5071853;28;20107;-69
2021/04/09 01:36:19;;;;;;;16.92;9.60;;;6.70;99.90;;;;;;5090349;28;20035;-70
2021/04/09 01:38:54;;;;;;;16.00;9.40;;;6.60;99.90;;;;;;5072960;28;20035;-69
2021/04/09 01:41:20;;;;;;;18.80;9.15;;;6.60;99.90;;;;;;5063655;28;20025;-69
2021/04/09 01:43:47;;;;;;;19.80;9.27;;;6.60;99.90;;;;;;5071447;28;20082;-69
2021/04/09 01:46:15;;;;;;;15.05;8.38;;;6.60;99.90;;;;;;5073825;28;20040;-69
2021/04/09 01:48:43;;;;;;;20.17;9.52;;;6.60;99.90;;;;;;5071356;28;20024;-68
2021/04/09 01:51:12;;;;;;;18.17;9.40;;;6.50;99.90;;;;;;5062249;28;20496;-69
2021/04/09 01:53:40;;;;;;;16.20;9.50;;;6.60;99.90;;;;;;5065041;28;20017;-68
2021/04/09 01:56:08;;;;;;;18.08;9.38;;;6.50;99.90;;;;;;5072887;28;20114;-69
2021/04/09 01:58:35;;;;;;;17.13;8.55;;;6.50;99.90;;;;;;5068643;28;20032;-69
2021/04/09 02:01:02;;;;;;;17.42;9.15;;;6.40;99.90;;;;;;5065241;28;20041;-69
2021/04/09 02:03:29;;;;;;;15.23;8.48;;;6.50;99.90;;;;;;5065588;28;20059;-69
2021/04/09 02:05:55;;;;;;;18.05;8.70;;;6.50;99.90;;;;;;5063134;28;20130;-69
2021/04/09 02:08:22;;;;;;;16.30;9.82;;;6.60;99.90;;;;;;5068794;28;20060;-69
2021/04/09 02:10:48;;;;;;;18.02;9.30;;;6.50;99.90;;;;;;5062190;28;20021;-69
2021/04/09 02:13:15;;;;;;;13.90;9.00;;;6.60;99.90;;;;;;5066887;28;20027;-70
2021/04/09 02:15:42;;;;;;;20.88;9.13;;;6.60;99.90;;;;;;5075027;28;20017;-68
2021/04/09 02:18:08;;;;;;;15.98;9.30;;;6.60;99.90;;;;;;5074818;28;20480;-69
2021/04/09 02:20:34;;;;;;;21.48;9.93;;;6.60;99.90;;;;;;5072556;28;20104;-69
2021/04/09 02:23:01;;;;;;;15.40;9.25;;;6.60;99.90;;;;;;5065200;28;20112;-69
2021/04/09 02:25:26;;;;;;;14.50;8.15;;;6.60;99.90;;;;;;5070122;28;20047;-69
2021/04/09 02:27:52;;;;;;;19.10;8.90;;;6.70;99.90;;;;;;5070937;28;20024;-69
2021/04/09 02:30:21;;;;;;;14.60;8.02;;;6.60;99.90;;;;;;5068685;28;20025;-70
2021/04/09 02:32:47;;;;;;;16.13;8.30;;;6.60;99.90;;;;;;5071257;28;20024;-69
2021/04/09 02:35:15;;;;;;;15.90;9.02;;;6.60;99.90;;;;;;5069563;28;20472;-69
2021/04/09 02:37:42;;;;;;;17.08;9.55;;;6.50;99.90;;;;;;5063021;28;20473;-70
2021/04/09 02:40:20;;;;;;;11.95;8.43;;;6.50;99.90;;;;;;5071448;28;20028;-69
2021/04/09 02:42:51;;;;;;;12.38;8.00;;;6.50;99.90;;;;;;5068043;28;20052;-68
2021/04/09 02:45:19;;;;;;;17.40;9.13;;;6.50;99.90;;;;;;5070380;28;20087;-69
2021/04/09 02:47:46;;;;;;;14.57;8.18;;;6.50;99.90;;;;;;5069536;28;20039;-70
2021/04/09 02:50:36;;;;;;;18.80;10.43;;;6.50;99.90;;;;;;5069469;28;20028;-68
2021/04/09 02:53:09;;;;;;;18.60;8.43;;;6.50;99.90;;;;;;5067815;28;20648;-69
2021/04/09 02:55:39;;;;;;;13.27;8.43;;;6.50;99.90;;;;;;5068924;28;20546;-69
2021/04/09 02:58:06;;;;;;;17.90;8.90;;;6.50;99.90;;;;;;5075908;28;20074;-69
2021/04/09 03:00:35;;;;;;;16.60;8.63;;;6.50;99.90;;;;;;5070115;28;20044;-68
2021/04/09 03:03:02;;;;;;;16.98;8.65;;;6.40;99.90;;;;;;5063949;28;20041;-69
2021/04/09 03:05:28;;;;;;;17.25;9.50;;;6.40;99.90;;;;;;5072133;28;20542;-68
2021/04/09 03:07:54;;;;;;;17.10;8.50;;;6.40;99.90;;;;;;5072362;28;20024;-69
2021/04/09 03:10:20;;;;;;;13.73;7.88;;;6.40;99.90;;;;;;5068115;28;20115;-69
2021/04/09 03:12:46;;;;;;;17.20;7.45;;;6.40;99.90;;;;;;5064823;28;20101;-69
2021/04/09 03:15:20;;;;;;;21.40;9.10;;;6.40;99.90;;;;;;5066759;28;20477;-69
2021/04/09 03:18:08;;;;;;;12.73;8.55;;;6.50;99.90;;;;;;5064357;28;20116;-70
2021/04/09 03:20:33;;;;;;;14.23;8.52;;;6.50;99.90;;;;;;5063615;28;20040;-69
2021/04/09 03:22:59;;;;;;;16.67;7.95;;;6.50;99.90;;;;;;5061698;28;20082;-69
2021/04/09 03:25:25;;;;;;;14.07;7.78;;;6.40;99.90;;;;;;5071345;28;20045;-68
2021/04/09 03:27:50;;;;;;;14.20;8.23;;;6.40;99.90;;;;;;5067809;28;20031;-69
2021/04/09 03:30:22;;;;;;;14.50;8.20;;;6.50;99.90;;;;;;5065539;28;20024;-69
2021/04/09 03:32:48;;;;;;;17.42;8.45;;;6.40;99.90;;;;;;5059247;28;20114;-70
2021/04/09 03:35:15;;;;;;;13.73;8.32;;;6.30;99.90;;;;;;5068420;28;20032;-69
2021/04/09 03:37:41;;;;;;;14.50;8.13;;;6.30;99.90;;;;;;5066119;28;20142;-70
2021/04/09 03:40:08;;;;;;;17.65;8.60;;;6.30;99.90;;;;;;5066865;28;20094;-70
2021/04/09 03:42:33;;;;;;;14.43;8.05;;;6.30;99.90;;;;;;5070420;28;20017;-69
2021/04/09 03:44:59;;;;;;;16.25;7.68;;;6.40;99.90;;;;;;5066531;28;20178;-70
2021/04/09 03:47:25;;;;;;;16.13;7.93;;;6.40;99.90;;;;;;5065708;28;20030;-69
2021/04/09 03:49:50;;;;;;;15.07;7.63;;;6.40;99.90;;;;;;5065624;28;20028;-70
2021/04/09 03:52:16;;;;;;;16.60;8.82;;;6.40;99.90;;;;;;5067111;28;20411;-71
2021/04/09 03:54:42;;;;;;;18.25;9.13;;;6.40;99.90;;;;;;5069763;28;20633;-70
2021/04/09 03:57:08;;;;;;;19.92;9.93;;;6.40;99.90;;;;;;5068342;28;20047;-71
2021/04/09 03:59:33;;;;;;;15.77;9.23;;;6.30;99.90;;;;;;5066611;28;20034;-70
2021/04/09 04:01:59;;;;;;;12.82;8.57;;;6.30;99.90;;;;;;5078004;28;20050;-70
2021/04/09 04:04:25;;;;;;;15.75;8.90;;;6.30;99.90;;;;;;5073499;28;20417;-70
2021/04/09 04:06:51;;;;;;;15.30;8.13;;;6.30;99.90;;;;;;5067701;28;20933;-70
2021/04/09 04:09:17;;;;;;;18.17;9.15;;;6.30;99.90;;;;;;5063838;28;20032;-71
2021/04/09 04:11:43;;;;;;;17.27;8.50;;;6.30;99.90;;;;;;5064440;28;20035;-70
2021/04/09 04:14:09;;;;;;;16.70;9.18;;;6.30;99.90;;;;;;5073610;28;20047;-70
2021/04/09 04:16:34;;;;;;;23.92;10.02;;;6.40;99.90;;;;;;5064677;28;20017;-70
2021/04/09 04:19:00;;;;;;;14.35;8.25;;;6.40;99.90;;;;;;5067242;28;20068;-69
2021/04/09 04:21:26;;;;;;;15.65;8.10;;;6.30;99.90;;;;;;5071379;28;20481;-70
2021/04/09 04:23:51;;;;;;;14.90;8.52;;;6.40;99.90;;;;;;5066025;28;20078;-69
2021/04/09 04:26:17;;;;;;;18.50;8.30;;;6.40;99.90;;;;;;5069807;28;20374;-69
2021/04/09 04:28:43;;;;;;;14.88;8.13;;;6.30;99.90;;;;;;5069548;28;20016;-69
2021/04/09 04:31:09;;;;;;;15.23;8.32;;;6.30;99.90;;;;;;5067219;28;20028;-68
2021/04/09 04:33:35;;;;;;;15.95;8.90;;;6.30;99.90;;;;;;5065501;28;20024;-69
2021/04/09 04:36:01;;;;;;;14.52;9.02;;;6.30;99.90;;;;;;5066109;28;20039;-69
2021/04/09 04:38:28;;;;;;;14.13;7.50;;;6.30;99.90;;;;;;5068496;28;20032;-69
2021/04/09 04:40:54;;;;;;;16.75;9.05;;;6.30;99.90;;;;;;5060147;28;20024;-69
2021/04/09 04:43:19;;;;;;;14.73;8.85;;;6.30;99.90;;;;;;5065898;28;20024;-70
2021/04/09 04:45:45;;;;;;;16.35;8.18;;;6.30;99.90;;;;;;5073402;28;20036;-69
2021/04/09 04:48:11;;;;;;;11.95;8.35;;;6.30;99.90;;;;;;5064471;28;20499;-70
2021/04/09 04:50:37;;;;;;;15.38;9.18;;;6.30;99.90;;;;;;5059493;28;20032;-69
2021/04/09 04:53:03;;;;;;;14.15;7.78;;;6.30;99.90;;;;;;5068455;28;20056;-69
2021/04/09 04:55:30;;;;;;;12.88;8.07;;;6.30;99.90;;;;;;5062991;28;20481;-69
2021/04/09 04:57:56;;;;;;;14.85;8.35;;;6.30;99.90;;;;;;5064983;28;20048;-68
2021/04/09 05:00:22;;;;;;;14.70;8.65;;;6.40;99.90;;;;;;5068879;28;20060;-70
2021/04/09 05:02:47;;;;;;;14.25;8.32;;;6.40;99.90;;;;;;5063518;28;20483;-69
2021/04/09 05:05:13;;;;;;;13.70;8.70;;;6.40;99.90;;;;;;5073906;28;20120;-70
2021/04/09 05:07:39;;;;;;;12.93;8.32;;;6.40;99.90;;;;;;5068180;28;20523;-69
2021/04/09 05:10:06;;;;;;;15.15;8.98;;;6.30;99.90;;;;;;5067402;28;20105;-70
2021/04/09 05:12:33;;;;;;;15.30;8.73;;;6.30;99.90;;;;;;5073966;28;20032;-69
2021/04/09 05:14:58;;;;;;;15.75;8.60;;;6.30;99.90;;;;;;5067710;28;20497;-70
2021/04/09 05:17:24;;;;;;;17.95;8.80;;;6.30;99.90;;;;;;5068347;28;20047;-70
2021/04/09 05:19:50;;;;;;;19.23;9.05;;;6.20;99.90;;;;;;5071701;28;20028;-68
2021/04/09 05:22:16;;;;;;;15.73;9.10;;;6.20;99.90;;;;;;5067537;28;20502;-70
2021/04/09 05:24:41;;;;;;;16.17;8.52;;;6.10;99.90;;;;;;5071150;28;20045;-70
2021/04/09 05:27:07;;;;;;;19.13;9.05;;;6.20;99.90;;;;;;5077634;28;20032;-70
2021/04/09 05:29:37;;;;;;;16.58;8.80;;;6.20;99.90;;;;;;5073283;28;20112;-70
2021/04/09 05:32:12;;;;;;;15.20;8.45;;;6.20;99.90;;;;;;5064707;28;20500;-70
2021/04/09 05:34:39;;;;;;;17.23;9.45;;;6.30;99.90;;;;;;5071552;28;20047;-70
2021/04/09 05:37:05;;;;;;;12.52;8.45;;;6.20;99.90;;;;;;5068271;28;20484;-71
2021/04/09 05:39:31;;;;;;;14.13;9.00;;;6.20;99.90;;;;;;5067748;28;20561;-69
2021/04/09 05:41:57;;;;;;;16.65;9.10;;;6.20;99.90;;;;;;5072593;28;20020;-70
2021/04/09 05:44:23;;;;;;;14.77;9.38;;;6.20;99.90;;;;;;5071313;28;20054;-70
2021/04/09 05:46:48;;;;;;;12.32;8.55;;;6.30;99.90;;;;;;5069178;28;20074;-70
2021/04/09 05:49:14;;;;;;;15.05;9.20;;;6.30;99.90;;;;;;5067610;28;20043;-70
2021/04/09 05:51:40;;;;;;;12.00;8.00;;;6.20;99.90;;;;;;5070123;28;20043;-70
2021/04/09 05:54:06;;;;;;;14.77;8.63;;;6.30;99.90;;;;;;5067911;28;20441;-71
2021/04/09 05:56:31;;;;;;;15.98;8.57;;;6.40;99.90;;;;;;5075437;28;20028;-70
2021/04/09 05:58:57;;;;;;;15.65;8.38;;;6.30;99.90;;;;;;5076213;28;20028;-70
2021/04/09 06:01:23;;;;;;;12.75;8.57;;;6.40;99.90;;;;;;5069516;28;20372;-68
2021/04/09 06:03:48;;;;;;;13.75;8.43;;;6.40;99.90;;;;;;5071793;28;20099;-70
2021/04/09 06:06:14;;;;;;;14.07;7.15;;;6.50;99.90;;;;;;5079875;28;20031;-70
2021/04/09 06:08:40;;;;;;;15.75;9.60;;;6.50;99.90;;;;;;5081820;28;20075;-70
2021/04/09 06:11:07;;;;;;;15.10;9.20;;;6.50;99.90;;;;;;5070827;28;20519;-70
2021/04/09 06:13:32;;;;;;;15.65;7.90;;;6.60;99.90;;;;;;5071513;28;20029;-70
2021/04/09 06:15:58;;;;;;;17.80;9.00;;;6.70;99.90;;;;;;5080568;28;20389;-69
2021/04/09 06:18:24;;;;;;;14.50;8.40;;;6.70;99.90;;;;;;5064451;28;20025;-72
2021/04/09 06:20:49;;;;;;;15.93;7.97;;;6.60;99.90;;;;;;5059981;28;20037;-70
2021/04/09 06:23:15;;;;;;;16.27;7.80;;;6.60;99.90;;;;;;5068781;28;20103;-71
2021/04/09 06:25:41;;;;;;;14.00;7.93;;;6.70;99.90;;;;;;5063550;28;20048;-69
2021/04/09 06:28:06;;;;;;;16.05;8.82;;;6.70;99.90;;;;;;5068239;28;20016;-69
2021/04/09 06:30:32;;;;;;;13.73;8.13;;;6.90;99.90;;;;;;5062589;28;20500;-70
2021/04/09 06:32:58;;;;;;;16.92;8.00;;;6.90;99.90;;;;;;5071681;28;20029;-70
2021/04/09 06:35:23;;;;;;;16.17;8.68;;;7.00;99.90;;;;;;5067457;28;20036;-70
2021/04/09 06:37:49;;;;;;;13.60;7.82;;;7.00;99.90;;;;;;5070637;28;20032;-70
2021/04/09 06:40:15;;;;;;;11.02;8.45;;;7.00;99.90;;;;;;5070420;28;20431;-69
2021/04/09 06:42:44;;;;;;;17.75;8.13;;;7.10;99.90;;;;;;5061013;28;20029;-70
2021/04/09 06:45:12;;;;;;;14.75;8.40;;;7.10;99.90;;;;;;5068301;28;20029;-69
2021/04/09 06:47:38;;;;;;;15.15;7.75;;;7.30;99.90;;;;;;5065028;28;20079;-70
2021/04/09 06:50:05;;;;;;;12.07;7.57;;;7.30;99.90;;;;;;5068802;28;20029;-69
2021/04/09 06:52:30;;;;;;;19.70;8.55;;;7.40;99.90;;;;;;5058745;28;20052;-69
2021/04/09 06:55:00;;;;;;;17.40;8.48;;;7.40;99.90;;;;;;5067518;28;20090;-70
2021/04/09 06:57:27;;;;;;;16.58;8.45;;;7.50;99.90;;;;;;5064324;28;20518;-70
2021/04/09 06:59:56;;;;;;;15.65;8.55;;;7.60;99.90;;;;;;5065435;28;20025;-69
2021/04/09 07:02:23;;;;;;;14.13;7.90;;;7.60;99.90;;;;;;5068284;28;20036;-71
2021/04/09 07:04:48;;;;;;;15.15;8.43;;;7.60;99.90;;;;;;5066826;28;20040;-70
2021/04/09 07:07:17;;;;;;;19.38;8.88;;;7.70;99.90;;;;;;5070820;28;20025;-70
2021/04/09 07:09:46;;;;;;;18.55;7.85;;;7.80;99.90;;;;;;5065045;28;20020;-70
2021/04/09 07:12:27;;;;;;;14.27;8.50;;;7.80;99.90;;;;;;5063698;28;20707;-71
2021/04/09 07:15:00;;;;;;;15.70;8.70;;;8.00;99.90;;;;;;5073381;28;20024;-68
2021/04/09 07:17:28;;;;;;;14.98;9.20;;;8.10;99.90;;;;;;5070360;28;20021;-69
2021/04/09 07:20:21;;;;;;;20.50;9.45;;;8.10;99.90;;;;;;5072843;28;20476;-70
2021/04/09 07:22:51;;;;;;;;;;;8.20;99.90;;;;;;5062693;28;20500;-69
2021/04/09 07:25:23;;;;;;;15.43;8.50;;;8.20;99.90;;;;;;5066965;28;20296;-70
2021/04/09 07:27:51;;;;;;;20.23;9.23;;;8.40;99.90;;;;;;5061461;28;20039;-70
2021/04/09 07:30:18;;;;;;;14.82;8.27;;;8.50;99.90;;;;;;5069593;28;20021;-69
2021/04/09 07:32:44;;;;;;;19.75;8.82;;;8.50;99.90;;;;;;5064254;28;20110;-69
2021/04/09 07:35:13;;;;;;;16.80;9.00;;;8.40;99.90;;;;;;5067086;28;20104;-69
2021/04/09 07:37:56;;;;;;;22.42;9.32;;;8.60;99.90;;;;;;5064845;28;20060;-70
2021/04/09 07:40:23;;;;;;;;;;;8.60;99.90;;;;;;5066692;28;20052;-70
2021/04/09 07:42:49;;;;;;;17.95;9.20;;;8.70;99.90;;;;;;5059598;28;19912;-71
2021/04/09 07:45:18;;;;;;;16.85;9.13;;;8.80;99.90;;;;;;5063974;28;20118;-68
2021/04/09 07:48:04;;;;;;;20.88;8.95;;;8.90;99.90;;;;;;5064454;28;20024;-70
2021/04/09 07:50:34;;;;;;;20.85;10.60;;;9.00;99.90;;;;;;5066626;28;20499;-71
2021/04/09 07:53:00;;;;;;;17.13;9.73;;;9.10;99.90;;;;;;5068121;28;20043;-70
2021/04/09 07:55:31;;;;;;;20.42;9.60;;;9.20;99.90;;;;;;5066055;28;20489;-69
2021/04/09 07:58:24;;;;;;;20.02;9.60;;;9.30;99.90;;;;;;5065407;28;20094;-69
2021/04/09 08:00:51;;;;;;;;;;;9.30;99.90;;;;;;5060664;28;20031;-69
2021/04/09 08:03:36;;;;;;;19.80;9.65;;;9.40;99.90;;;;;;5066229;28;19963;-69
2021/04/09 08:06:14;;;;;;;19.58;9.95;;;9.50;99.90;;;;;;5067822;28;20032;-70
2021/04/09 08:08:46;;;;;;;17.65;9.73;;;9.60;99.90;;;;;;5065419;28;20024;-69
2021/04/09 08:11:29;;;;;;;18.20;9.48;;;9.70;99.90;;;;;;5066329;28;20074;-71
2021/04/09 08:14:12;;;;;;;23.50;10.32;;;9.80;99.90;;;;;;5070846;28;20070;-70
2021/04/09 08:16:41;;;;;;;;;;;9.90;99.90;;;;;;5070450;28;20041;-70
2021/04/09 08:19:13;;;;;;;16.33;9.88;;;10.00;99.90;;;;;;5070251;28;19974;-71
2021/04/09 08:21:44;;;;;;;16.45;9.18;;;10.00;99.90;;;;;;5068018;28;20529;-71
2021/04/09 08:24:10;;;;;;;17.88;9.32;;;10.10;99.90;;;;;;5060119;28;20033;-71
2021/04/09 08:26:38;;;;;;;16.55;9.75;;;10.30;99.90;;;;;;5068820;28;20071;-71
2021/04/09 08:29:07;;;;;;;19.05;9.43;;;10.40;99.90;;;;;;5065439;28;20048;-71
2021/04/09 08:31:33;;;;;;;17.00;9.43;;;10.50;99.90;;;;;;5063613;28;20028;-71
2021/04/09 08:33:58;;;;;;;19.80;9.60;;;10.70;99.90;;;;;;5067187;28;22738;-69
2021/04/09 08:36:26;;;;;;;18.08;8.93;;;10.90;99.90;;;;;;5064033;28;20100;-69
2021/04/09 08:38:54;;;;;;;18.52;9.18;;;11.00;99.90;;;;;;5067254;28;20074;-69
2021/04/09 08:41:20;;;;;;;13.75;8.70;;;11.20;99.90;;;;;;5069824;28;20017;-69
2021/04/09 08:43:46;;;;;;;19.75;8.55;;;11.30;99.90;;;;;;5055939;28;20036;-69
2021/04/09 08:46:12;;;;;;;15.93;8.57;;;11.40;99.90;;;;;;5070519;28;20032;-69
2021/04/09 08:48:39;;;;;;;19.60;8.52;;;11.40;99.90;;;;;;5058769;28;20150;-69
2021/04/09 08:51:06;;;;;;;14.63;8.55;;;11.50;99.90;;;;;;5063740;28;20028;-70
2021/04/09 08:53:32;;;;;;;11.40;6.95;;;11.50;99.90;;;;;;5069065;28;20477;-69
2021/04/09 08:55:58;;;;;;;12.77;8.20;;;11.60;99.90;;;;;;5067428;28;20033;-70
2021/04/09 08:58:24;;;;;;;10.70;6.75;;;11.70;99.90;;;;;;5064448;28;20024;-70
2021/04/09 09:00:55;;;;;;;15.75;7.80;;;11.80;99.90;;;;;;5061150;28;20481;-69
2021/04/09 09:03:30;;;;;;;11.48;7.03;;;12.00;99.90;;;;;;5064737;28;20377;-69
2021/04/09 09:06:01;;;;;;;16.15;7.43;;;12.00;99.90;;;;;;5065466;28;20032;-70
2021/04/09 09:08:44;;;;;;;12.15;6.47;;;12.20;99.90;;;;;;5063287;28;20556;-72
2021/04/09 09:11:11;;;;;;;12.98;6.97;;;12.50;99.90;;;;;;5070806;28;20028;-71
2021/04/09 09:13:41;;;;;;;11.95;8.13;;;12.50;99.90;;;;;;5060521;28;20118;-69
2021/04/09 09:16:17;;;;;;;12.02;7.35;;;12.50;99.90;;;;;;5065390;28;20035;-70
2021/04/09 09:18:56;;;;;;;23.55;8.38;;;12.70;99.90;;;;;;5066922;28;20020;-70
2021/04/09 09:21:25;;;;;;;9.63;6.40;;;12.60;99.90;;;;;;5064684;28;20029;-69
2021/04/09 09:24:04;;;;;;;9.70;6.57;;;12.80;99.90;;;;;;5064281;28;20012;-70
2021/04/09 09:26:48;;;;;;;12.48;6.38;;;12.80;99.90;;;;;;5067734;28;20132;-69
2021/04/09 09:29:27;;;;;;;15.00;6.20;;;13.00;99.90;;;;;;5057340;28;20032;-69
2021/04/09 09:31:59;;;;;;;14.73;7.45;;;13.10;99.90;;;;;;5067291;28;20107;-71
2021/04/09 09:34:25;;;;;;;13.20;6.82;;;13.20;99.90;;;;;;5060807;28;20511;-69
2021/04/09 09:36:57;;;;;;;11.07;6.38;;;13.10;99.90;;;;;;5069996;28;20052;-69
2021/04/09 09:39:42;;;;;;;7.43;5.53;;;13.10;99.90;;;;;;5063169;28;20024;-69
2021/04/09 09:42:13;;;;;;;10.18;5.40;;;13.10;99.90;;;;;;5064388;28;20032;-71
2021/04/09 09:44:38;;;;;;;13.27;5.90;;;13.30;99.90;;;;;;5067558;28;20067;-68
2021/04/09 09:47:14;;;;;;;7.93;5.85;;;13.30;99.90;;;;;;5068154;28;20060;-68
2021/04/09 09:50:00;;;;;;;10.52;6.30;;;13.40;99.90;;;;;;5060054;28;20074;-70
2021/04/09 09:52:55;;;;;;;13.20;6.70;;;13.50;99.90;;;;;;5065674;28;20032;-70
2021/04/09 09:55:25;;;;;;;9.05;5.97;;;13.50;99.90;;;;;;5068459;28;20029;-70
2021/04/09 09:57:53;;;;;;;10.93;6.32;;;13.60;99.90;;;;;;5070108;28;20029;-69
2021/04/09 10:00:29;;;;;;;12.45;6.53;;;13.70;99.90;;;;;;5069641;28;20034;-72
2021/04/09 10:03:29;;;;;;;11.73;6.60;;;14.00;99.90;;;;;;5069334;28;20029;-72
2021/04/09 10:05:57;;;;;;;9.70;7.07;;;13.90;99.90;;;;;;5065032;28;20420;-71
2021/04/09 10:08:24;;;;;;;12.98;6.70;;;13.80;99.90;;;;;;5059217;28;20025;-70
2021/04/09 10:10:56;;;;;;;12.05;5.55;;;14.00;99.90;;;;;;5069403;28;20028;-72
2021/04/09 10:13:25;;;;;;;11.57;6.38;;;14.00;99.90;;;;;;5066715;28;20504;-71
2021/04/09 10:15:53;;;;;;;10.70;5.85;;;14.00;99.90;;;;;;5067167;28;20036;-72
2021/04/09 10:18:19;;;;;;;12.93;6.15;;;14.10;99.50;;;;;;5069383;28;20024;-68
2021/04/09 10:20:48;;;;;;;8.63;5.43;;;14.10;99.90;;;;;;5068573;28;20408;-69
2021/04/09 10:23:14;;;;;;;9.00;5.40;;;14.20;99.90;;;;;;5057770;28;20382;-69
2021/04/09 10:25:40;;;;;;;9.68;6.20;;;14.40;99.90;;;;;;5065597;28;20036;-68
2021/04/09 10:28:13;;;;;;;11.80;5.18;;;14.40;98.90;;;;;;5068260;28;20024;-68
2021/04/09 10:30:40;;;;;;;12.50;5.57;;;14.40;99.90;;;;;;5065207;28;20427;-68
2021/04/09 10:33:06;;;;;;;8.68;5.15;;;14.40;99.90;;;;;;5062354;28;20029;-69
2021/04/09 10:35:32;;;;;;;6.63;4.75;;;14.30;99.90;;;;;;5062308;28;20032;-69
2021/04/09 10:38:13;;;;;;;10.32;5.38;;;14.40;99.90;;;;;;5069220;28;20107;-69
2021/04/09 10:40:52;;;;;;;9.77;5.75;;;14.30;99.90;;;;;;5068780;28;20029;-69
2021/04/09 10:43:35;;;;;;;8.98;5.40;;;14.50;99.90;;;;;;5063990;28;20386;-69
2021/04/09 10:46:14;;;;;;;8.32;5.25;;;14.20;99.60;;;;;;5068896;28;20037;-67
2021/04/09 10:48:42;;;;;;;9.65;5.68;;;14.40;99.90;;;;;;5062096;28;20071;-68
2021/04/09 10:51:08;;;;;;;12.07;6.38;;;14.30;99.40;;;;;;5061774;28;20028;-69
2021/04/09 10:53:41;;;;;;;10.32;6.05;;;14.10;99.90;;;;;;5066174;28;20028;-68
2021/04/09 10:56:11;;;;;;;9.35;6.15;;;14.00;99.80;;;;;;5067908;28;20140;-68
2021/04/09 10:58:40;;;;;;;11.15;7.00;;;13.80;99.90;;;;;;5063458;28;20107;-69
2021/04/09 11:01:06;;;;;;;12.02;6.90;;;13.80;99.90;;;;;;5066265;28;20044;-69
2021/04/09 11:03:32;;;;;;;8.43;6.28;;;13.80;99.90;;;;;;5062963;28;20033;-69
2021/04/09 11:05:59;;;;;;;11.70;7.03;;;13.70;99.90;;;;;;5060533;28;20044;-69
2021/04/09 11:08:39;;;;;;;11.55;7.20;;;13.80;99.90;;;;;;5061802;28;20065;-68
2021/04/09 11:11:13;;;;;;;10.85;7.00;;;13.70;99.30;;;;;;5064746;28;20032;-68
2021/04/09 11:13:40;;;;;;;11.98;7.40;;;13.80;99.90;;;;;;5065398;28;20021;-68
2021/04/09 11:16:07;;;;;;;13.38;7.15;;;14.00;99.90;;;;;;5063896;28;20419;-68
2021/04/09 11:18:48;;;;;;;10.00;5.57;;;13.90;99.90;;;;;;5060821;28;20583;-68
2021/04/09 11:21:15;;;;;;;9.05;5.95;;;13.90;99.90;;;;;;5065447;28;20105;-68
2021/04/09 11:23:41;;;;;;;10.40;6.30;;;13.80;99.90;;;;;;5062358;28;20047;-69
2021/04/09 11:26:19;;;;;;;12.57;6.40;;;13.80;99.90;;;;;;5062002;28;20055;-68
2021/04/09 11:28:52;;;;;;;7.93;5.78;;;13.90;99.90;;;;;;5065048;28;20017;-68
2021/04/09 11:31:24;;;;;;;7.38;5.43;;;14.00;99.90;;;;;;5067265;28;20119;-70
2021/04/09 11:34:08;;;;;;;13.63;5.95;;;14.10;99.90;;;;;;5066965;28;20016;-68
2021/04/09 11:36:56;;;;;;;10.93;5.93;;;14.40;99.30;;;;;;5064131;28;20523;-68
2021/04/09 11:39:22;;;;;;;10.75;5.90;;;14.50;99.90;;;;;;5072103;28;20028;-67
2021/04/09 11:42:02;;;;;;;7.97;5.20;;;14.80;99.40;;;;;;5066923;28;20028;-67
2021/04/09 11:44:37;;;;;;;10.25;5.32;;;15.00;99.20;;;;;;5062486;28;20069;-68
2021/04/09 11:47:21;;;;;;;7.40;4.97;;;15.00;97.90;;;;;;5068290;28;20028;-68
2021/04/09 11:49:58;;;;;;;8.90;5.30;;;15.00;98.40;;;;;;5066858;28;20021;-67
2021/04/09 11:52:24;;;;;;;8.00;5.95;;;15.10;99.10;;;;;;5063766;28;20112;-68
2021/04/09 11:54:49;;;;;;;9.52;5.95;;;15.30;98.90;;;;;;5072143;28;20515;-67
2021/04/09 11:57:27;;;;;;;12.88;5.70;;;15.10;97.20;;;;;;5064330;28;20031;-67
2021/04/09 11:59:53;;;;;;;6.53;5.22;;;15.00;97.90;;;;;;5062851;28;20043;-67
2021/04/09 12:02:21;;;;;;;10.52;5.10;;;15.00;96.70;;;;;;5065818;28;20040;-67
2021/04/09 12:04:47;;;;;;;8.75;4.95;;;15.10;97.80;;;;;;5057422;28;20043;-68
2021/04/09 12:07:27;;;;;;;8.27;6.07;;;15.00;97.30;;;;;;5065758;28;20070;-67
2021/04/09 12:09:57;;;;;;;13.85;6.20;;;15.00;98.20;;;;;;5062150;28;20047;-68
2021/04/09 12:12:25;;;;;;;7.95;5.35;;;15.00;98.00;;;;;;5067778;28;20037;-68
2021/04/09 12:14:56;;;;;;;10.52;5.63;;;15.20;98.50;;;;;;5068869;28;20095;-67
2021/04/09 12:17:23;;;;;;;10.80;6.00;;;15.30;96.90;;;;;;5067498;28;20029;-67
2021/04/09 12:19:51;;;;;;;9.25;5.80;;;15.20;97.50;;;;;;5066182;28;20017;-68
2021/04/09 12:22:17;;;;;;;6.07;5.10;;;15.10;97.20;;;;;;5061541;28;20132;-67
2021/04/09 12:24:45;;;;;;;9.55;5.20;;;15.20;98.70;;;;;;5068077;28;20033;-67
2021/04/09 12:27:11;;;;;;;5.25;4.63;;;15.00;97.70;;;;;;5065060;28;20021;-68
2021/04/09 12:29:38;;;;;;;9.15;5.50;;;14.90;98.30;;;;;;5061678;28;20024;-67
2021/04/09 12:32:05;;;;;;;9.05;5.30;;;14.80;98.10;;;;;;5064421;28;20021;-67
2021/04/09 12:34:31;;;;;;;7.03;4.47;;;14.90;97.40;;;;;;5063950;28;20284;-67
2021/04/09 12:36:57;;;;;;;9.57;5.47;;;14.90;97.30;;;;;;5060128;28;20519;-67
2021/04/09 12:39:23;;;;;;;6.45;5.38;;;15.10;97.10;;;;;;5065407;28;20103;-67
2021/04/09 12:41:50;;;;;;;8.10;5.40;;;15.10;97.70;;;;;;5064901;28;20031;-67
2021/04/09 12:44:17;;;;;;;7.28;5.30;;;14.80;97.00;;;;;;5066449;28;20094;-69
2021/04/09 12:46:44;;;;;;;8.95;5.60;;;14.80;96.90;;;;;;5065192;28;20028;-68
2021/04/09 12:49:10;;;;;;;10.82;5.72;;;14.80;97.30;;;;;;5059737;28;20024;-74
2021/04/09 12:51:36;;;;;;;11.48;6.13;;;14.90;99.00;;;;;;5060913;28;20033;-70
2021/04/09 12:54:03;;;;;;;9.70;5.30;;;15.00;97.50;;;;;;5066848;28;20405;-68
2021/04/09 12:56:29;;;;;;;10.20;5.38;;;15.00;96.30;;;;;;5066502;28;20036;-67